Time;durP1;ratioP1;P1;durP2;ratioP2;P2;SDS_P1;SDS_P2;PMS_P1;PMS_P2;Temp;Humidity;BMP_temperature;BMP_pressure;BME280_temperature;BME280_humidity;BME280_pressure;Samples;Min_cycle;Max_cycle;Signal;HPM_P1;HPM_P2
2022/12/15 00:38:44;;;;;;;9.87;4.90;;;;;;;9.46;100.00;-14235.59;5093514;28;20207;-62
2022/12/15 00:41:12;;;;;;;7.50;4.73;;;;;;;9.41;100.00;-14234.63;5093140;28;20205;-62
2022/12/15 00:43:39;;;;;;;5.23;4.83;;;;;;;9.39;100.00;-14234.25;5093179;28;20202;-62
2022/12/15 00:48:53;;;;;;;5.40;5.00;;;;;;;9.35;100.00;-14551.03;5093207;28;20175;-62
2022/12/15 00:51:19;;;;;;;18.37;5.87;;;;;;;9.12;100.00;-14546.84;5093029;28;20180;-62
2022/12/15 01:21:17;;;;;;;9.17;7.53;;;;;;;9.36;100.00;-14233.81;5092724;28;20641;-62
2022/12/15 01:23:44;;;;;;;7.90;6.63;;;;;;;9.37;100.00;-14233.97;5092452;28;20200;-62
2022/12/15 01:26:11;;;;;;;8.93;7.97;;;;;;;9.49;100.00;-13918.47;5092267;28;20610;-62
2022/12/15 01:28:38;;;;;;;9.57;8.20;;;;;;;9.41;100.00;-13599.56;5092660;28;20188;-61
2022/12/15 01:31:10;;;;;;;11.90;8.43;;;;;;;9.58;100.00;-13284.75;5092261;28;20199;-63
2022/12/15 01:33:41;;;;;;;9.27;8.27;;;;;;;9.45;100.00;-12964.94;5092238;28;20617;-62
2022/12/15 01:36:09;;;;;;;13.20;7.83;;;;;;;9.60;100.00;-12649.56;5092446;28;20298;-61
2022/12/15 01:38:36;;;;;;;14.93;6.87;;;;;;;9.62;100.00;-12332.06;5092078;28;20184;-62
2022/12/15 01:41:05;;;;;;;6.30;5.63;;;;;;;9.64;100.00;-12014.41;5092025;28;20211;-61
2022/12/15 01:43:34;;;;;;;7.90;5.70;;;;;;;9.72;100.00;-11697.56;5091650;28;20198;-62
2022/12/15 01:46:04;;;;;;;5.90;4.93;;;;;;;9.64;100.00;-11696.59;5092300;28;20187;-62
2022/12/15 01:48:42;;;;;;;9.67;5.00;;;;;;;9.81;100.00;-11062.78;5092304;28;20181;-61
2022/12/15 01:51:17;;;;;;;8.40;4.60;;;;;;;9.82;100.00;-10744.84;5092273;28;20362;-62
2022/12/15 01:53:48;;;;;;;13.37;4.87;;;;;;;9.86;100.00;-10427.22;5092114;28;20282;-61
2022/12/15 01:56:15;;;;;;;6.53;3.87;;;;;;;9.89;100.00;-10427.63;5092127;28;20253;-62
2022/12/15 01:58:45;;;;;;;13.60;4.27;;;;;;;9.88;100.00;-10109.28;5092087;28;20199;-61
2022/12/15 02:01:12;;;;;;;11.93;4.70;;;;;;;9.93;100.00;-10428.03;5091773;28;20188;-61
2022/12/15 02:03:42;;;;;;;8.23;4.20;;;;;;;9.97;100.00;-10428.50;5092020;28;20194;-62
2022/12/15 02:06:10;;;;;;;4.27;3.87;;;;;;;9.95;100.00;-10746.44;5091980;28;20704;-62
2022/12/15 02:08:38;;;;;;;7.97;3.57;;;;;;;9.90;100.00;-10427.75;5091979;28;20191;-61
2022/12/15 02:11:34;;;;;;;4.30;3.90;;;;;;;9.96;100.00;-10746.56;5091653;28;20188;-61
2022/12/15 02:14:03;;;;;;;5.27;4.30;;;;;;;9.89;100.00;-10745.75;5074890;28;20223;-61
2022/12/15 02:16:46;;;;;;;10.40;4.33;;;;;;;9.99;100.00;-11065.09;5091500;28;20195;-60
2022/12/15 02:19:50;;;;;;;6.43;3.80;;;;;;;9.93;100.00;-11064.38;5091435;28;20207;-60
2022/12/15 02:22:27;;;;;;;4.10;3.80;;;;;;;10.03;100.00;-11383.75;5091524;28;20199;-60
2022/12/15 02:25:22;;;;;;;5.03;3.63;;;;;;;9.98;100.00;-11383.09;5091568;28;20207;-59
2022/12/15 02:27:59;;;;;;;5.10;3.80;;;;;;;10.00;100.00;-11383.34;5091551;28;20274;-60
2022/12/15 02:30:41;;;;;;;3.93;2.90;;;;;;;10.02;100.00;-11383.63;5091374;28;20176;-59
2022/12/15 02:33:15;;;;;;;7.60;3.90;;;;;;;9.99;100.00;-11701.31;5091706;28;20560;-60
2022/12/15 02:35:56;;;;;;;5.80;3.23;;;;;;;9.98;100.00;-11701.19;5091559;28;20203;-59
2022/12/15 02:38:32;;;;;;;11.13;4.47;;;;;;;9.94;100.00;-12018.66;5091633;28;20186;-59
2022/12/15 02:41:00;;;;;;;6.63;4.07;;;;;;;10.04;100.00;-12020.09;5091127;28;20212;-59
2022/12/15 02:43:29;;;;;;;5.33;3.63;;;;;;;10.01;100.00;-12019.66;5091603;28;20192;-59
2022/12/15 02:46:09;;;;;;;5.57;3.30;;;;;;;10.08;100.00;-12020.66;5091274;28;20199;-59
2022/12/15 02:48:46;;;;;;;4.17;3.80;;;;;;;10.08;100.00;-12020.66;5090286;28;20610;-59
2022/12/15 02:51:27;;;;;;;9.73;3.77;;;;;;;10.06;100.00;-12020.38;5091137;28;20188;-59
2022/12/15 02:54:17;;;;;;;6.53;3.37;;;;;;;10.15;100.00;-12021.69;5092784;28;20188;-58
2022/12/15 02:56:56;;;;;;;7.97;4.00;;;;;;;10.06;100.00;-11702.34;5092223;28;20199;-60
2022/12/15 02:59:32;;;;;;;8.60;3.90;;;;;;;10.18;100.00;-11703.88;5095203;28;20207;-59
2022/12/15 03:02:04;;;;;;;10.43;4.63;;;;;;;10.07;100.00;-11702.50;5095510;28;20567;-59
2022/12/15 03:04:32;;;;;;;4.40;4.10;;;;;;;10.16;100.00;-11385.50;5095155;28;20268;-59
2022/12/15 03:07:03;;;;;;;4.80;4.27;;;;;;;10.21;100.00;-11704.38;5095561;28;20267;-60
2022/12/15 03:09:30;;;;;;;4.80;4.50;;;;;;;10.13;100.00;-11385.09;5095145;28;20176;-59
2022/12/15 03:11:57;;;;;;;5.03;4.53;;;;;;;10.14;100.00;-10748.78;5095389;28;20558;-59
2022/12/15 03:14:24;;;;;;;7.37;5.37;;;;;;;10.13;100.00;-11066.88;5095337;28;20180;-59
2022/12/15 03:16:51;;;;;;;5.63;4.90;;;;;;;10.08;100.00;-10748.03;5095260;28;20191;-60
2022/12/15 03:19:20;;;;;;;5.00;4.47;;;;;;;10.04;100.00;-10747.63;5094956;28;20215;-59
2022/12/15 03:21:47;;;;;;;5.30;4.77;;;;;;;10.03;100.00;-11065.66;5095226;28;20215;-59
2022/12/15 03:24:14;;;;;;;5.83;5.33;;;;;;;10.02;100.00;-11383.69;5095116;28;20192;-59
2022/12/15 03:26:42;;;;;;;5.47;4.87;;;;;;;9.96;100.00;-11382.88;5094756;28;20236;-58
2022/12/15 03:29:09;;;;;;;9.20;6.03;;;;;;;9.95;100.00;-11382.69;5095095;28;20639;-59
2022/12/15 03:31:36;;;;;;;6.00;5.60;;;;;;;9.94;100.00;-11382.56;5094745;28;20189;-59
2022/12/15 03:34:03;;;;;;;6.40;5.90;;;;;;;9.90;100.00;-11382.00;5094899;28;20291;-59
2022/12/15 03:36:31;;;;;;;7.23;6.63;;;;;;;9.91;100.00;-11382.16;5095013;28;20222;-59
2022/12/15 03:38:58;;;;;;;10.23;6.30;;;;;;;9.89;100.00;-11063.81;5094880;28;20184;-59
2022/12/15 03:41:25;;;;;;;7.27;6.57;;;;;;;9.64;100.00;-10742.69;5094644;28;20664;-59
2022/12/15 03:43:51;;;;;;;8.67;6.63;;;;;;;9.82;100.00;-11062.97;5094397;28;20184;-60
2022/12/15 03:46:18;;;;;;;7.37;6.80;;;;;;;9.83;100.00;-11063.09;5094380;28;20192;-59
2022/12/15 03:48:45;;;;;;;8.67;7.97;;;;;;;9.82;100.00;-11062.91;5094294;28;20188;-58
2022/12/15 03:51:12;;;;;;;7.70;7.20;;;;;;;9.84;100.00;-11063.16;5094217;28;20184;-60
2022/12/15 03:53:40;;;;;;;8.30;7.50;;;;;;;9.87;100.00;-11381.69;5094368;28;20195;-59
2022/12/15 03:56:08;;;;;;;9.33;8.40;;;;;;;9.84;100.00;-11063.22;5094406;28;20535;-59
2022/12/15 03:58:35;;;;;;;7.97;7.27;;;;;;;9.88;100.00;-11381.75;5094327;28;20190;-59
2022/12/15 04:01:10;;;;;;;11.83;7.33;;;;;;;9.79;100.00;-10744.53;5093892;28;20214;-59
2022/12/15 04:03:37;;;;;;;8.73;8.23;;;;;;;9.83;100.00;-10744.97;5094263;28;20630;-59
2022/12/15 04:06:04;;;;;;;13.10;10.00;;;;;;;9.72;100.00;-11061.63;5093217;28;20184;-59
2022/12/15 04:08:31;;;;;;;11.53;10.33;;;;;;;9.82;100.00;-11062.91;5093816;28;20209;-60
2022/12/15 04:10:59;;;;;;;10.33;9.63;;;;;;;9.79;100.00;-11062.53;5094113;28;20617;-60
2022/12/15 04:13:26;;;;;;;12.90;10.23;;;;;;;9.64;100.00;-11060.72;5094077;28;20706;-60
2022/12/15 04:15:53;;;;;;;12.83;9.83;;;;;;;9.81;100.00;-11062.78;5093694;28;20184;-61
2022/12/15 04:18:19;;;;;;;12.03;10.77;;;;;;;9.78;100.00;-10744.34;5092749;28;20650;-60
2022/12/15 04:20:46;;;;;;;12.00;10.63;;;;;;;9.79;100.00;-11062.53;5092654;28;20208;-59
2022/12/15 04:23:13;;;;;;;11.87;10.70;;;;;;;9.74;100.00;-10743.84;5093566;28;20245;-59
2022/12/15 05:31:46;;;;;;;15.50;13.77;;;;;;;9.45;100.00;-9150.53;5092716;28;20654;-58
2022/12/15 05:34:15;;;;;;;16.47;14.90;;;;;;;9.59;100.00;-9470.00;5092091;28;20187;-59
2022/12/15 05:36:42;;;;;;;20.10;15.37;;;;;;;9.63;100.00;-9470.34;5092681;28;20207;-59
2022/12/15 05:39:09;;;;;;;17.83;15.90;;;;;;;9.63;100.00;-9470.41;5092413;28;20184;-58
2022/12/15 05:41:36;;;;;;;20.50;15.47;;;;;;;9.67;100.00;-9470.72;5092252;28;20219;-58
2022/12/15 05:44:03;;;;;;;18.83;14.67;;;;;;;9.72;100.00;-9471.22;5091994;28;20188;-58
2022/12/15 05:46:30;;;;;;;20.90;18.00;;;;;;;9.72;100.00;-9471.22;5092146;28;20184;-59
2022/12/15 05:48:57;;;;;;;24.20;19.17;;;;;;;9.75;100.00;-9153.34;5092487;28;20185;-58
2022/12/15 05:51:25;;;;;;;25.73;20.20;;;;;;;9.78;100.00;-9153.69;5092525;28;20188;-60
2022/12/15 05:53:52;;;;;;;25.43;18.57;;;;;;;9.84;100.00;-8517.69;5092652;28;20594;-59
2022/12/15 05:56:18;;;;;;;26.67;20.50;;;;;;;9.84;100.00;-8835.94;5092129;28;20184;-59
2022/12/15 05:58:45;;;;;;;30.60;22.57;;;;;;;9.89;100.00;-8836.41;5092056;28;20649;-58
2022/12/15 06:01:14;;;;;;;35.57;23.73;;;;;;;9.93;100.00;-8836.78;5092014;28;20583;-59
2022/12/15 06:03:42;;;;;;;46.93;30.00;;;;;;;9.94;100.00;-8518.53;5092120;28;20192;-59
2022/12/15 06:06:10;;;;;;;34.30;24.23;;;;;;;9.88;100.00;-8518.03;5091804;28;20646;-59
2022/12/15 06:08:40;;;;;;;19.93;16.93;;;;;;;9.92;100.00;-8199.97;5091653;28;20191;-58
2022/12/15 06:11:07;;;;;;;27.07;21.67;;;;;;;9.96;100.00;-8518.75;5091613;28;20204;-60
2022/12/15 06:13:34;;;;;;;31.83;21.57;;;;;;;9.97;100.00;-8837.19;5091677;28;20187;-59
2022/12/15 06:16:04;;;;;;;21.00;18.50;;;;;;;9.98;100.00;-8837.25;5092080;28;20653;-59
2022/12/15 06:18:34;;;;;;;33.20;22.10;;;;;;;10.05;100.00;-9156.25;5090773;28;20619;-59
2022/12/15 06:21:04;;;;;;;33.37;24.80;;;;;;;10.10;100.00;-9156.75;5091737;28;20208;-60
2022/12/15 06:23:32;;;;;;;29.50;23.03;;;;;;;10.14;100.00;-9157.09;5091677;28;20192;-59
2022/12/15 06:26:08;;;;;;;30.23;24.50;;;;;;;10.12;100.00;-8520.09;5091708;28;20706;-60
2022/12/15 06:28:35;;;;;;;20.00;17.93;;;;;;;10.17;100.00;-8839.00;5091125;28;20180;-59
2022/12/15 06:31:05;;;;;;;26.23;17.33;;;;;;;10.20;100.00;-9157.72;5091691;28;20184;-59
2022/12/15 06:33:33;;;;;;;30.87;20.73;;;;;;;10.24;100.00;-8521.13;5091934;28;20184;-59
2022/12/15 06:36:03;;;;;;;27.33;22.73;;;;;;;10.28;100.00;-8839.97;5092159;28;20626;-60
2022/12/15 06:38:30;;;;;;;32.67;20.03;;;;;;;10.29;100.00;-8840.06;5091530;28;20244;-59
2022/12/15 06:40:58;;;;;;;26.13;19.50;;;;;;;10.40;100.00;-9159.63;5091690;28;20211;-61
2022/12/15 06:43:29;;;;;;;24.30;18.83;;;;;;;10.50;100.00;-9797.75;5091530;28;20571;-61
2022/12/15 06:45:56;;;;;;;24.63;17.47;;;;;;;10.23;100.00;-9794.84;5091034;28;20180;-60
2022/12/15 06:48:24;;;;;;;21.73;19.13;;;;;;;10.51;100.00;-10116.31;5091347;28;20654;-61
2022/12/15 06:50:51;;;;;;;19.60;17.77;;;;;;;10.52;100.00;-10753.41;5091289;28;20630;-63
2022/12/15 06:53:20;;;;;;;21.70;19.37;;;;;;;10.66;100.00;-11073.56;5091325;28;20195;-61
2022/12/15 06:55:47;;;;;;;23.47;18.03;;;;;;;10.74;100.00;-11711.56;5090889;28;20184;-61
2022/12/15 06:58:15;;;;;;;25.73;18.73;;;;;;;10.84;100.00;-11712.94;5091179;28;20195;-60
2022/12/15 07:00:45;;;;;;;17.90;16.00;;;;;;;10.84;100.00;-12031.44;5091532;28;20208;-61
2022/12/15 07:03:15;;;;;;;19.53;16.70;;;;;;;10.73;100.00;-12666.72;5091313;28;20188;-61
2022/12/15 07:05:42;;;;;;;17.27;15.67;;;;;;;10.86;100.00;-13623.81;5090822;28;20188;-62
2022/12/15 07:08:10;;;;;;;21.27;15.07;;;;;;;10.86;100.00;-14260.44;5091022;28;20205;-61
2022/12/15 07:10:39;;;;;;;17.33;15.53;;;;;;;10.97;100.00;-14899.09;5091006;28;20180;-61
2022/12/15 07:13:07;;;;;;;17.27;15.60;;;;;;;10.81;100.00;-15214.13;5090922;28;20281;-61
2022/12/15 07:15:33;;;;;;;17.80;16.00;;;;;;;10.86;100.00;-16169.63;5090597;28;20189;-61
2022/12/15 07:18:02;;;;;;;16.70;15.20;;;;;;;10.84;100.00;-16805.19;5090684;28;20287;-62
2022/12/15 07:20:29;;;;;;;19.90;14.83;;;;;;;10.74;100.00;-16802.97;5090593;28;20208;-62
2022/12/15 07:22:56;;;;;;;16.10;14.60;;;;;;;10.77;100.00;-17121.59;5090460;28;20176;-61
2022/12/15 07:25:23;;;;;;;15.93;14.53;;;;;;;10.77;100.00;-16803.66;5089681;28;20235;-62
2022/12/15 07:27:50;;;;;;;16.13;14.73;;;;;;;10.74;100.00;-16167.00;5090787;28;20200;-64
2022/12/15 07:30:17;;;;;;;15.83;14.13;;;;;;;10.65;100.00;-15529.16;5090833;28;20188;-62
2022/12/15 07:32:46;;;;;;;14.90;13.60;;;;;;;10.62;100.00;-15210.44;5091137;28;20184;-62
2022/12/15 07:35:15;;;;;;;15.90;14.40;;;;;;;10.64;100.00;-14574.63;5086927;28;20196;-62
2022/12/15 07:37:42;;;;;;;14.43;13.20;;;;;;;10.60;100.00;-14255.75;5073443;28;20679;-62
2022/12/15 07:40:10;;;;;;;15.30;13.70;;;;;;;10.57;100.00;-13937.06;5069570;28;20184;-62
2022/12/15 07:42:37;;;;;;;14.77;13.57;;;;;;;10.53;100.00;-13618.38;5074508;28;20185;-61
2022/12/15 07:45:05;;;;;;;14.63;13.07;;;;;;;10.44;100.00;-13298.72;5074561;28;20184;-62
2022/12/15 07:47:33;;;;;;;16.03;14.53;;;;;;;10.51;100.00;-12981.59;5074539;28;20567;-62
2022/12/15 07:49:59;;;;;;;16.13;14.63;;;;;;;10.48;100.00;-12344.72;5074458;28;20185;-63
2022/12/15 07:52:29;;;;;;;16.23;14.57;;;;;;;10.56;100.00;-12345.81;5074756;28;20227;-62
2022/12/15 07:54:56;;;;;;;18.17;16.27;;;;;;;10.57;100.00;-12027.56;5088204;28;20573;-62
2022/12/15 07:57:24;;;;;;;22.67;16.53;;;;;;;10.54;100.00;-11708.88;5090234;28;20200;-61
2022/12/15 07:59:51;;;;;;;17.63;15.37;;;;;;;10.61;100.00;-11709.75;5093981;28;20211;-63
2022/12/15 08:02:18;;;;;;;17.37;15.17;;;;;;;10.65;100.00;-11391.94;5094609;28;20200;-63
2022/12/15 08:04:45;;;;;;;19.47;15.57;;;;;;;10.72;100.00;-11074.31;5094734;28;20196;-62
2022/12/15 08:07:13;;;;;;;20.77;16.00;;;;;;;10.73;100.00;-11074.44;5095313;28;20241;-62
2022/12/15 08:09:41;;;;;;;17.67;15.73;;;;;;;10.81;100.00;-10438.28;5095911;28;20188;-62
2022/12/15 08:12:08;;;;;;;19.47;16.77;;;;;;;10.82;100.00;-11394.22;5095069;28;20191;-62
2022/12/15 08:14:35;;;;;;;18.50;16.60;;;;;;;10.97;100.00;-12033.31;5095171;28;20644;-62
2022/12/15 08:17:02;;;;;;;18.77;16.83;;;;;;;11.06;100.00;-12353.19;5096092;28;20235;-64
2022/12/15 08:19:30;;;;;;;21.47;17.00;;;;;;;11.12;100.00;-13628.22;5096322;28;20199;-63
2022/12/15 08:21:57;;;;;;;18.50;16.43;;;;;;;11.24;100.00;-15540.78;5096430;28;20207;-61
2022/12/15 08:24:26;;;;;;;19.47;16.47;;;;;;;11.46;100.00;-17137.19;5095463;28;20188;-62
2022/12/15 08:26:54;;;;;;;18.83;16.80;;;;;;;11.56;100.00;-17775.88;5095346;28;20258;-62
2022/12/15 08:29:21;;;;;;;22.00;17.27;;;;;;;11.87;100.00;-15871.94;5094938;28;20200;-62
2022/12/15 08:31:48;;;;;;;18.60;16.80;;;;;;;12.10;100.00;-11730.22;5074736;28;20188;-63
2022/12/15 08:34:15;;;;;;;18.23;16.33;;;;;;;12.33;100.00;-6940.66;5081046;28;20631;-63
2022/12/15 08:36:42;;;;;;;18.47;16.23;;;;;;;12.46;100.00;-1179.66;5093958;28;20298;-63
2022/12/15 08:39:09;;;;;;;18.53;16.83;;;;;;;12.39;100.00;1383.84;5093713;28;20188;-62
2022/12/15 08:41:36;;;;;;;18.17;16.40;;;;;;;12.31;100.00;2665.75;5074759;28;20223;-63
2022/12/15 08:44:05;;;;;;;20.67;18.43;;;;;;;12.39;100.00;422.19;5093600;28;20575;-63
2022/12/15 08:46:34;;;;;;;20.93;18.13;;;;;;;12.60;100.00;1064.72;5094183;28;20192;-62
2022/12/15 08:49:07;;;;;;;22.43;19.77;;;;;;;12.99;100.00;6205.34;5093835;28;20593;-62
2022/12/15 08:51:42;;;;;;;22.90;18.70;;;;;;;13.38;100.00;18131.00;5093646;28;20180;-61
2022/12/15 08:54:12;;;;;;;29.77;18.73;;;;;;;13.36;100.00;25884.75;5093189;28;20199;-62
2022/12/15 08:56:51;;;;;;;24.20;18.67;;;;;;;13.25;100.00;25556.56;5094006;28;20184;-62
2022/12/15 08:59:25;;;;;;;15.70;14.40;;;;;;;13.17;100.00;24582.69;5093526;28;20192;-63
2022/12/15 09:01:54;;;;;;;13.17;12.27;;;;;;;12.94;100.00;29423.03;5093575;28;20204;-62
2022/12/15 09:04:21;;;;;;;12.23;11.37;;;;;;;12.69;100.00;26499.69;5091635;28;20603;-62
2022/12/15 09:09:39;;;;;;;9.90;9.20;;;;;;;12.56;100.00;21004.81;5091038;28;20434;-61
2022/12/15 09:12:11;;;;;;;9.73;8.93;;;;;;;12.29;100.00;20027.13;5090252;28;20616;-61
2022/12/15 09:14:40;;;;;;;7.27;6.90;;;;;;;12.40;100.00;13589.28;5090380;28;20184;-62
2022/12/15 09:17:07;;;;;;;7.30;6.77;;;;;;;12.33;100.00;13909.25;5092417;28;20194;-60
2022/12/15 09:19:33;;;;;;;7.90;7.40;;;;;;;12.21;100.00;13262.53;5092277;28;20211;-62
2022/12/15 09:22:01;;;;;;;5.83;5.63;;;;;;;12.06;100.00;15510.31;5092456;28;20227;-61
2022/12/15 09:24:28;;;;;;;5.73;5.53;;;;;;;11.93;100.00;18725.22;5092572;28;20196;-63
2022/12/15 09:26:56;;;;;;;6.80;6.50;;;;;;;11.68;100.00;15498.69;5092070;28;20323;-62
2022/12/15 09:29:23;;;;;;;5.90;5.60;;;;;;;11.65;100.00;11319.84;5092004;28;20237;-61
2022/12/15 09:31:51;;;;;;;6.20;5.93;;;;;;;11.64;100.00;11319.59;5092419;28;20184;-62
2022/12/15 09:34:18;;;;;;;5.30;5.10;;;;;;;11.40;100.00;17098.13;5090749;28;20194;-62
2022/12/15 09:36:45;;;;;;;5.50;5.30;;;;;;;11.36;100.00;19670.56;5091953;28;20192;-61
2022/12/15 09:39:13;;;;;;;5.20;5.00;;;;;;;11.19;100.00;19985.97;5092314;28;20200;-62
2022/12/15 09:41:41;;;;;;;5.17;4.97;;;;;;;11.13;100.00;22236.72;5081888;28;20654;-61
2022/12/15 09:44:14;;;;;;;5.17;4.97;;;;;;;11.01;100.00;23197.59;5086170;28;20200;-61
2022/12/15 09:46:55;;;;;;;9.23;5.37;;;;;;;10.92;100.00;21584.34;5092490;28;20593;-63
2022/12/15 09:49:37;;;;;;;5.87;5.57;;;;;;;10.92;100.00;22549.88;5092215;28;20535;-62
2022/12/15 09:52:07;;;;;;;6.13;5.73;;;;;;;10.97;100.00;22230.06;5092236;28;20200;-61
2022/12/15 09:54:34;;;;;;;5.87;5.67;;;;;;;11.02;100.00;25130.41;5092342;28;20578;-61
2022/12/15 09:57:11;;;;;;;6.73;6.43;;;;;;;11.22;100.00;36762.56;5091633;28;20201;-61
2022/12/15 09:59:50;;;;;;;7.30;6.80;;;;;;;11.67;100.00;50738.25;5092572;28;20192;-61
2022/12/15 10:02:33;;;;;;;6.57;6.03;;;;;;;12.25;100.00;83805.38;5089399;28;20234;-63
2022/12/15 10:05:12;;;;;;;5.73;4.83;;;;;;;12.58;100.00;149200.59;5087220;28;20543;-63
2022/12/15 10:07:45;;;;;;;5.30;5.00;;;;;;;13.19;100.00;149355.16;5079669;28;20275;-62
2022/12/15 10:10:18;;;;;;;5.43;4.93;;;;;;;14.71;100.00;149735.44;5089734;28;20206;-62
2022/12/15 10:12:46;;;;;;;4.23;4.03;;;;;;;15.47;100.00;149925.69;5091392;28;20210;-63
2022/12/15 10:15:20;;;;;;;5.23;4.70;;;;;;;16.83;100.00;150267.28;5091493;28;20184;-63
2022/12/15 10:17:53;;;;;;;4.63;4.37;;;;;;;17.65;100.00;150474.41;5091853;28;20279;-62
2022/12/15 10:20:22;;;;;;;9.60;4.93;;;;;;;18.03;100.00;150569.78;5091209;28;20192;-62
2022/12/15 10:22:50;;;;;;;15.53;6.17;;;;;;;18.44;100.00;150671.47;5091838;28;20250;-62
2022/12/15 10:25:19;;;;;;;17.13;6.53;;;;;;;19.51;100.00;150941.28;5091396;28;20236;-63
2022/12/15 10:28:07;;;;;;;7.43;4.70;;;;;;;19.69;100.00;150987.06;5091180;28;20216;-63
2022/12/15 10:30:35;;;;;;;26.73;5.97;;;;;;;19.83;100.00;151021.44;5091638;28;20203;-63
2022/12/15 10:33:17;;;;;;;6.80;4.77;;;;;;;18.32;100.00;150640.97;5091402;28;20571;-61
2022/12/15 10:35:45;;;;;;;6.37;5.73;;;;;;;17.63;100.00;150468.06;5091362;28;20210;-62
2022/12/15 10:38:24;;;;;;;6.27;5.77;;;;;;;16.67;100.00;150227.94;5091036;28;20188;-62
2022/12/15 10:40:54;;;;;;;6.67;6.03;;;;;;;15.53;100.00;149942.22;5091466;28;20207;-61
2022/12/15 10:43:32;;;;;;;8.60;5.87;;;;;;;14.37;100.00;149649.19;5091303;28;20218;-62
2022/12/15 10:46:05;;;;;;;6.03;5.73;;;;;;;14.02;100.00;149562.94;5090451;28;20199;-61
2022/12/15 10:48:33;;;;;;;6.50;6.00;;;;;;;13.79;100.00;149504.63;5086860;28;20551;-62
2022/12/15 10:51:19;;;;;;;8.73;7.73;;;;;;;13.71;100.00;149484.34;5090731;28;20196;-62
2022/12/15 10:53:47;;;;;;;8.97;7.33;;;;;;;13.24;100.00;149366.53;5088030;28;20523;-62
2022/12/15 10:56:20;;;;;;;8.40;7.67;;;;;;;13.14;100.00;149341.22;5090887;28;20215;-62
2022/12/15 10:58:50;;;;;;;7.60;7.20;;;;;;;12.97;100.00;149298.09;5090803;28;20219;-62
2022/12/15 11:01:20;;;;;;;10.37;6.63;;;;;;;12.99;100.00;149304.41;5088919;28;20280;-62
2022/12/15 11:03:53;;;;;;;7.43;5.93;;;;;;;12.80;100.00;149256.31;5091136;28;20188;-61
2022/12/15 11:06:23;;;;;;;4.80;4.60;;;;;;;12.61;100.00;149208.19;5090469;28;20190;-61
2022/12/15 11:08:51;;;;;;;5.97;5.53;;;;;;;12.31;100.00;149133.50;5090687;28;20188;-62
2022/12/15 11:14:15;;;;;;;10.77;6.90;;;;;;;12.53;100.00;149189.19;5079201;28;20679;-61
2022/12/15 11:16:53;;;;;;;10.60;6.30;;;;;;;13.21;100.00;149360.22;5090139;28;20184;-61
2022/12/15 11:19:36;;;;;;;6.67;6.07;;;;;;;13.92;100.00;149537.56;5093387;28;20199;-61
2022/12/15 11:22:09;;;;;;;6.03;5.67;;;;;;;14.67;100.00;149725.28;5094121;28;20297;-62
2022/12/15 11:24:43;;;;;;;5.43;5.13;;;;;;;15.33;100.00;149890.16;5094451;28;20185;-62
2022/12/15 11:27:18;;;;;;;7.13;5.73;;;;;;;15.62;100.00;149962.50;5094566;28;20215;-61
2022/12/15 11:30:03;;;;;;;5.47;5.27;;;;;;;15.88;100.00;150029.78;5094489;28;20187;-62
2022/12/15 11:32:34;;;;;;;5.47;5.07;;;;;;;15.40;100.00;149909.16;5093359;28;20211;-61
2022/12/15 11:35:03;;;;;;;5.97;5.50;;;;;;;14.08;100.00;149578.19;5094131;28;20184;-63
2022/12/15 11:37:37;;;;;;;5.17;4.73;;;;;;;13.46;100.00;149422.28;5094442;28;20191;-62
2022/12/15 11:40:34;;;;;;;11.50;6.23;;;;;;;13.09;100.00;149329.78;5088788;28;20195;-62
2022/12/15 11:43:28;;;;;;;15.90;7.30;;;;;;;12.50;100.00;149180.34;5072712;28;20631;-61
2022/12/15 11:46:07;;;;;;;13.57;5.80;;;;;;;12.00;100.00;149055.06;5092435;28;20200;-61
2022/12/15 11:48:41;;;;;;;12.80;6.30;;;;;;;12.02;100.00;149061.34;5094080;28;20192;-61
2022/12/15 11:51:17;;;;;;;17.23;7.37;;;;;;;11.97;100.00;149048.69;5094376;28;20227;-62
2022/12/15 11:54:03;;;;;;;10.23;6.60;;;;;;;11.75;100.00;148994.28;5094791;28;20188;-62
2022/12/15 11:56:34;;;;;;;20.37;6.30;;;;;;;11.65;100.00;148967.69;5094563;28;20203;-62
2022/12/15 11:59:30;;;;;;;12.27;6.33;;;;;;;11.66;100.00;148970.22;5093893;28;20180;-62
2022/12/15 12:02:18;;;;;;;8.07;6.20;;;;;;;11.58;100.00;148951.25;5091661;28;20224;-61
2022/12/15 12:05:01;;;;;;;15.93;6.50;;;;;;;11.62;100.00;148961.38;5094462;28;20354;-62
2022/12/15 12:07:39;;;;;;;12.23;5.80;;;;;;;11.61;100.00;148958.84;5079714;28;20196;-63
2022/12/15 12:10:24;;;;;;;12.27;6.40;;;;;;;11.63;100.00;148963.88;5073440;28;20655;-63
2022/12/15 12:12:59;;;;;;;14.10;6.67;;;;;;;11.45;100.00;148919.63;5084497;28;20195;-62
2022/12/15 12:15:32;;;;;;;6.57;6.03;;;;;;;11.38;100.00;148900.63;5093533;28;20332;-62
2022/12/15 12:18:07;;;;;;;13.63;7.30;;;;;;;11.41;100.00;148908.25;5093129;28;20180;-62
2022/12/15 12:20:43;;;;;;;11.43;7.07;;;;;;;11.30;100.00;148880.41;5093767;28;20270;-63
2022/12/15 12:23:16;;;;;;;16.90;6.63;;;;;;;11.27;100.00;148874.09;5093856;28;20214;-62
2022/12/15 12:25:51;;;;;;;13.97;6.87;;;;;;;11.27;100.00;148874.09;5093445;28;20235;-62
2022/12/15 12:28:22;;;;;;;6.47;6.07;;;;;;;11.23;100.00;148863.97;5093217;28;20184;-62
2022/12/15 12:30:49;;;;;;;7.63;6.50;;;;;;;11.28;100.00;148876.63;5093632;28;20558;-63
2022/12/15 12:33:28;;;;;;;14.97;7.73;;;;;;;11.34;100.00;148891.78;5093427;28;20195;-62
2022/12/15 12:36:00;;;;;;;12.90;7.30;;;;;;;11.37;100.00;148898.13;5093333;28;20203;-62
2022/12/15 12:38:34;;;;;;;22.73;7.60;;;;;;;11.41;100.00;148909.47;5093359;28;20185;-63
2022/12/15 12:41:07;;;;;;;11.80;7.40;;;;;;;11.46;100.00;148920.88;5093592;28;20184;-62
2022/12/15 12:43:43;;;;;;;24.63;8.57;;;;;;;11.28;100.00;148875.38;5093204;28;20239;-62
2022/12/15 12:46:17;;;;;;;19.63;8.70;;;;;;;11.43;100.00;148913.28;5093038;28;20206;-63
2022/12/15 12:48:51;;;;;;;12.00;7.40;;;;;;;11.40;100.00;148906.97;5093305;28;20190;-61
2022/12/15 12:51:27;;;;;;;10.33;6.47;;;;;;;11.32;100.00;148886.75;5093162;28;20199;-63
2022/12/15 12:53:56;;;;;;;12.10;7.27;;;;;;;11.24;100.00;148865.25;5093147;28;20180;-62
2022/12/15 12:56:38;;;;;;;9.50;7.47;;;;;;;11.19;100.00;148853.84;5092650;28;20203;-62
2022/12/15 12:59:37;;;;;;;13.90;6.40;;;;;;;11.29;100.00;148879.13;5092602;28;20195;-61
2022/12/15 13:02:43;;;;;;;7.23;6.60;;;;;;;11.31;100.00;148884.22;5092876;28;20226;-63
2022/12/15 13:05:27;;;;;;;12.80;6.90;;;;;;;11.20;100.00;148855.13;5058655;28;20197;-63
2022/12/15 13:07:55;;;;;;;15.07;7.57;;;;;;;11.23;100.00;148863.97;5093037;28;20631;-62
2022/12/15 13:10:25;;;;;;;12.40;7.03;;;;;;;11.34;100.00;148891.78;5092811;28;20527;-63
2022/12/15 13:12:53;;;;;;;7.27;6.60;;;;;;;11.24;100.00;148866.53;5092194;28;20180;-63
2022/12/15 13:15:36;;;;;;;11.37;7.23;;;;;;;11.37;100.00;148898.13;5092522;28;20301;-62
2022/12/15 13:18:09;;;;;;;22.50;8.43;;;;;;;11.38;100.00;148901.91;5092431;28;20270;-64
2022/12/15 13:20:37;;;;;;;7.50;6.60;;;;;;;11.33;100.00;148888.03;5092615;28;20561;-64
2022/12/15 13:23:37;;;;;;;11.03;7.30;;;;;;;11.11;100.00;148833.63;5092208;28;20208;-63
2022/12/15 13:26:18;;;;;;;13.73;7.20;;;;;;;11.13;100.00;148837.38;5093962;28;20682;-60
2022/12/15 13:28:50;;;;;;;10.13;6.40;;;;;;;11.02;100.00;147746.56;5092098;28;20188;-63
2022/12/15 13:31:30;;;;;;;9.83;7.13;;;;;;;10.93;100.00;148055.16;5092730;28;20635;-61
2022/12/15 13:34:16;;;;;;;13.50;6.13;;;;;;;10.76;100.00;141984.22;5092245;28;20204;-63
2022/12/15 13:36:56;;;;;;;19.37;6.63;;;;;;;10.68;100.00;131082.16;5092404;28;20215;-63
2022/12/15 13:39:48;;;;;;;7.80;6.80;;;;;;;10.69;100.00;125111.47;5090954;28;20195;-63
2022/12/15 13:42:39;;;;;;;10.77;6.83;;;;;;;10.67;100.00;124775.66;5092016;28;20207;-62
2022/12/15 13:45:39;;;;;;;7.20;6.47;;;;;;;10.62;100.00;117149.25;5089810;28;20191;-63
2022/12/15 13:48:35;;;;;;;7.17;6.57;;;;;;;10.47;100.00;111834.34;5091669;28;20199;-63
2022/12/15 13:51:10;;;;;;;7.77;6.20;;;;;;;10.43;100.00;107206.56;5076560;28;20203;-62
2022/12/15 13:53:42;;;;;;;10.50;6.80;;;;;;;10.22;100.00;94337.84;5091138;28;20180;-64
2022/12/15 13:56:37;;;;;;;7.83;7.30;;;;;;;10.12;100.00;90055.81;5091912;28;20562;-63